createdAt,value
2018-09-30T00:00:10.314Z,98.51
2018-09-30T00:01:10.322Z,97.22
2018-09-30T00:02:10.295Z,97.89
2018-09-30T00:03:10.280Z,98.57
2018-09-30T00:04:10.269Z,97.22
2018-09-30T00:05:10.273Z,97.53
2018-09-30T00:06:10.243Z,97.17
2018-09-30T00:07:10.237Z,96.60
2018-09-30T00:08:10.228Z,96.55
2018-09-30T00:09:10.222Z,96.24
2018-09-30T00:10:10.248Z,95.83
2018-09-30T00:11:10.195Z,95.31
2018-09-30T00:12:10.191Z,95.51
2018-09-30T00:13:10.167Z,95.62
2018-09-30T00:14:10.164Z,95.47
2018-09-30T00:15:10.177Z,95.00
2018-09-30T00:16:10.159Z,95.20
2018-09-30T00:17:10.128Z,95.72
2018-09-30T00:18:10.114Z,95.37
2018-09-30T00:19:10.105Z,94.23
2018-09-30T00:20:10.100Z,94.74
2018-09-30T00:21:10.114Z,93.46
2018-09-30T00:22:10.097Z,93.77
2018-09-30T00:23:10.080Z,92.94
2018-09-30T00:24:10.052Z,91.86
2018-09-30T00:25:10.038Z,90.06
2018-09-30T00:26:10.054Z,91.30
2018-09-30T00:27:10.055Z,90.26
2018-09-30T00:28:10.011Z,90.64
2018-09-30T00:29:10.002Z,88.98
2018-09-30T00:30:09.985Z,90.74
2018-09-30T00:31:10.014Z,90.53
2018-09-30T00:32:09.967Z,88.57
2018-09-30T00:33:09.996Z,89.29
2018-09-30T00:34:09.952Z,88.57
2018-09-30T00:35:09.936Z,88.46
2018-09-30T00:36:10.039Z,88.53
2018-09-30T00:37:09.911Z,87.54
2018-09-30T00:38:09.900Z,86.57
2018-09-30T00:39:09.908Z,87.70
2018-09-30T00:40:09.880Z,87.81
2018-09-30T00:41:09.871Z,88.16
2018-09-30T00:42:09.878Z,88.06
2018-09-30T00:43:09.865Z,87.85
2018-09-30T00:44:09.837Z,88.98
2018-09-30T00:45:09.987Z,88.98
2018-09-30T00:46:09.816Z,88.71
2018-09-30T00:47:09.829Z,89.44
2018-09-30T00:48:09.828Z,89.96
2018-09-30T00:49:09.777Z,90.20
2018-09-30T00:50:09.767Z,91.03
2018-09-30T00:51:09.758Z,91.03
2018-09-30T00:52:09.749Z,91.45
2018-09-30T00:53:09.748Z,91.39
2018-09-30T00:54:09.747Z,92.11
2018-09-30T00:55:09.738Z,91.39
2018-09-30T00:56:09.704Z,92.43
2018-09-30T00:57:09.690Z,92.43
2018-09-30T00:58:09.679Z,92.57
2018-09-30T00:59:09.672Z,92.78
2018-09-30T01:00:09.687Z,90.97
2018-09-30T01:01:09.654Z,91.49
2018-09-30T01:02:09.635Z,90.87
2018-09-30T01:03:09.629Z,89.38
2018-09-30T01:04:09.619Z,89.58
2018-09-30T01:05:09.610Z,88.55
2018-09-30T01:06:09.624Z,89.28
2018-09-30T01:07:09.586Z,89.48
2018-09-30T01:08:09.578Z,88.96
2018-09-30T01:09:09.560Z,88.65
2018-09-30T01:10:09.549Z,90.00
2018-09-30T01:11:09.542Z,88.61
2018-09-30T01:12:09.558Z,88.76
2018-09-30T01:13:09.524Z,89.23
2018-09-30T01:14:09.522Z,89.34
2018-09-30T01:15:09.501Z,87.95
2018-09-30T01:16:09.489Z,87.16
2018-09-30T01:17:09.493Z,87.85
2018-09-30T01:18:09.497Z,86.60
2018-09-30T01:19:09.459Z,86.46
2018-09-30T01:20:09.448Z,85.84
2018-09-30T01:21:09.433Z,85.22
2018-09-30T01:22:09.423Z,84.39
2018-09-30T01:23:09.414Z,84.19
2018-09-30T01:24:09.431Z,83.42
2018-09-30T01:25:09.396Z,82.29
2018-09-30T01:26:09.382Z,82.45
2018-09-30T01:27:09.369Z,82.04
2018-09-30T01:28:09.366Z,82.21
2018-09-30T01:29:09.354Z,82.73
2018-09-30T01:30:09.392Z,83.49
2018-09-30T01:31:09.334Z,81.52
2018-09-30T01:32:09.342Z,81.59
2018-09-30T01:33:09.329Z,80.56
2018-09-30T01:34:09.299Z,79.83
2018-09-30T01:35:09.295Z,79.28
2018-09-30T01:36:09.295Z,80.52
2018-09-30T01:37:09.271Z,79.55
2018-09-30T01:38:09.254Z,79.08
2018-09-30T01:39:09.259Z,78.42
2018-09-30T01:40:09.237Z,78.83
2018-09-30T01:41:09.248Z,78.83
2018-09-30T01:42:09.240Z,77.80
2018-09-30T01:43:09.206Z,78.73
2018-09-30T01:44:09.188Z,77.08
2018-09-30T01:45:09.180Z,77.70
2018-09-30T01:46:09.172Z,77.28
2018-09-30T01:47:09.157Z,77.04
2018-09-30T01:48:09.170Z,77.28
2018-09-30T01:49:09.143Z,77.39
2018-09-30T01:50:09.129Z,76.42
2018-09-30T01:51:09.114Z,76.12
2018-09-30T01:52:09.111Z,75.84
2018-09-30T01:53:09.114Z,76.77
2018-09-30T01:54:09.087Z,75.81
2018-09-30T01:55:09.085Z,76.94
2018-09-30T01:56:09.059Z,76.77
2018-09-30T01:57:09.050Z,76.25
2018-09-30T01:58:09.059Z,76.98
2018-09-30T01:59:09.037Z,76.04
2018-09-30T02:00:09.042Z,76.63
2018-09-30T02:01:09.010Z,76.25
2018-09-30T02:02:09.006Z,76.12
2018-09-30T02:03:09.012Z,77.18
2018-09-30T02:04:08.975Z,77.08
2018-09-30T02:05:08.966Z,77.08
2018-09-30T02:06:08.957Z,77.18
2018-09-30T02:07:08.949Z,76.98
2018-09-30T02:08:08.961Z,77.39
2018-09-30T02:09:08.923Z,76.87
2018-09-30T02:10:08.914Z,77.39
2018-09-30T02:11:08.902Z,78.21
2018-09-30T02:12:08.914Z,77.53
2018-09-30T02:13:08.906Z,77.59
2018-09-30T02:14:08.874Z,78.66
2018-09-30T02:15:08.860Z,77.73
2018-09-30T02:16:08.851Z,78.77
2018-09-30T02:17:08.834Z,78.66
2018-09-30T02:18:08.824Z,77.94
2018-09-30T02:19:08.838Z,77.84
2018-09-30T02:20:08.806Z,78.25
2018-09-30T02:21:08.800Z,79.18
2018-09-30T02:22:08.784Z,78.35
2018-09-30T02:23:08.801Z,78.14
2018-09-30T02:24:08.764Z,78.80
2018-09-30T02:25:08.755Z,79.01
2018-09-30T02:26:08.758Z,78.49
2018-09-30T02:27:08.735Z,79.63
2018-09-30T02:28:08.719Z,79.83
2018-09-30T02:29:08.724Z,79.11
2018-09-30T02:30:08.699Z,78.70
2018-09-30T02:31:08.690Z,78.18
2018-09-30T02:32:08.709Z,78.25
2018-09-30T02:33:08.700Z,78.49
2018-09-30T02:34:08.661Z,77.32
2018-09-30T02:35:08.653Z,77.01
2018-09-30T02:36:08.639Z,76.98
2018-09-30T02:37:08.624Z,76.46
2018-09-30T02:38:08.639Z,76.46
2018-09-30T02:39:08.605Z,76.25
2018-09-30T02:40:08.622Z,76.12
2018-09-30T02:41:08.582Z,77.18
2018-09-30T02:42:08.569Z,77.08
2018-09-30T02:43:08.577Z,76.46
2018-09-30T02:44:08.559Z,75.84
2018-09-30T02:45:08.575Z,76.15
2018-09-30T02:46:08.532Z,75.63
2018-09-30T02:47:08.525Z,76.46
2018-09-30T02:48:08.524Z,76.87
2018-09-30T02:49:08.499Z,75.84
2018-09-30T02:50:08.482Z,75.95
2018-09-30T02:51:08.477Z,75.95
2018-09-30T02:52:08.471Z,75.63
2018-09-30T02:53:08.476Z,75.43
2018-09-30T02:54:08.446Z,75.74
2018-09-30T02:55:08.445Z,75.53
2018-09-30T02:56:08.442Z,75.63
2018-09-30T02:57:08.414Z,75.12
2018-09-30T02:58:08.407Z,76.15
2018-09-30T02:59:08.392Z,76.56
2018-09-30T03:00:08.380Z,76.67
2018-09-30T03:01:08.388Z,77.32
2018-09-30T03:02:08.355Z,77.84
2018-09-30T03:03:08.345Z,77.63
2018-09-30T03:04:08.344Z,77.53
2018-09-30T03:05:08.332Z,77.63
2018-09-30T03:06:08.353Z,78.66
2018-09-30T03:07:08.306Z,78.77
2018-09-30T03:08:08.302Z,78.80
2018-09-30T03:09:08.282Z,79.42
2018-09-30T03:10:08.295Z,80.04
2018-09-30T03:11:08.262Z,78.80
2018-09-30T03:12:08.273Z,79.01
2018-09-30T03:13:08.237Z,79.97
2018-09-30T03:14:08.237Z,80.49
2018-09-30T03:15:08.225Z,81.21
2018-09-30T03:16:08.214Z,80.80
2018-09-30T03:17:08.201Z,80.63
2018-09-30T03:18:08.219Z,80.53
2018-09-30T03:19:08.177Z,81.35
2018-09-30T03:20:08.166Z,81.67
2018-09-30T03:21:08.153Z,83.01
2018-09-30T03:22:08.142Z,83.67
2018-09-30T03:23:08.133Z,84.08
2018-09-30T03:24:08.141Z,84.33
2018-09-30T03:25:08.125Z,84.43
2018-09-30T03:26:08.100Z,85.30
2018-09-30T03:27:08.092Z,85.30
2018-09-30T03:28:08.084Z,85.65
2018-09-30T03:29:08.102Z,86.68
2018-09-30T03:30:08.063Z,85.96
2018-09-30T03:31:08.052Z,86.47
2018-09-30T03:32:08.050Z,86.83
2018-09-30T03:33:08.023Z,86.62
2018-09-30T03:34:08.013Z,87.70
2018-09-30T03:35:08.020Z,88.11
2018-09-30T03:36:07.997Z,88.88
2018-09-30T03:37:08.000Z,88.84
2018-09-30T03:38:07.976Z,88.21
2018-09-30T03:39:07.986Z,88.84
2018-09-30T03:40:07.953Z,87.87
2018-09-30T03:41:07.942Z,86.52
2018-09-30T03:42:07.935Z,86.83
2018-09-30T03:43:07.929Z,85.75
2018-09-30T03:44:07.907Z,85.34
2018-09-30T03:45:07.913Z,84.47
2018-09-30T03:46:07.888Z,84.47
2018-09-30T03:47:07.875Z,83.95
2018-09-30T03:48:07.885Z,83.81
2018-09-30T03:49:07.857Z,84.64
2018-09-30T03:50:07.864Z,83.95
2018-09-30T03:51:07.833Z,84.47
2018-09-30T03:52:07.822Z,84.12
2018-09-30T03:53:07.813Z,83.61
2018-09-30T03:54:07.817Z,84.37
2018-09-30T03:55:07.787Z,83.50
2018-09-30T03:56:07.781Z,82.67
2018-09-30T03:57:07.781Z,82.78
2018-09-30T03:58:07.756Z,82.43
2018-09-30T03:59:07.766Z,82.26
2018-09-30T04:00:07.738Z,81.64
2018-09-30T04:01:07.727Z,82.01
2018-09-30T04:02:07.734Z,81.09
2018-09-30T04:03:07.703Z,81.09
2018-09-30T04:04:07.712Z,80.53
2018-09-30T04:05:07.684Z,80.94
2018-09-30T04:06:07.691Z,79.91
2018-09-30T04:07:07.659Z,80.63
2018-09-30T04:08:07.652Z,80.53
2018-09-30T04:09:07.641Z,80.11
2018-09-30T04:10:07.698Z,80.22
2018-09-30T04:11:07.640Z,80.11
2018-09-30T04:12:07.606Z,79.56
2018-09-30T04:13:07.591Z,78.67
2018-09-30T04:14:07.594Z,79.77
2018-09-30T04:15:07.574Z,78.94
2018-09-30T04:16:07.561Z,79.70
2018-09-30T04:17:07.829Z,79.39
2018-09-30T04:18:07.540Z,80.74
2018-09-30T04:19:07.527Z,80.53
2018-09-30T04:20:07.522Z,80.36
2018-09-30T04:21:07.513Z,81.39
2018-09-30T04:22:07.519Z,81.84
2018-09-30T04:23:07.508Z,81.74
2018-09-30T04:24:07.473Z,81.54
2018-09-30T04:25:07.464Z,81.95
2018-09-30T04:26:07.452Z,82.05
2018-09-30T04:27:07.442Z,83.91
2018-09-30T04:28:07.450Z,84.37
2018-09-30T04:29:07.425Z,85.44
2018-09-30T04:30:07.413Z,85.44
2018-09-30T04:31:07.398Z,85.58
2018-09-30T04:32:07.390Z,86.66
2018-09-30T04:33:07.451Z,87.59
2018-09-30T04:34:07.381Z,87.01
2018-09-30T04:35:07.361Z,88.98
2018-09-30T04:36:07.347Z,88.88
2018-09-30T04:37:07.342Z,88.92
2018-09-30T04:38:07.384Z,87.47
2018-09-30T04:39:07.332Z,88.40
2018-09-30T04:40:07.324Z,89.34
2018-09-30T04:41:07.314Z,88.71
2018-09-30T04:42:07.285Z,89.34
2018-09-30T04:43:07.287Z,89.34
2018-09-30T04:44:07.257Z,89.03
2018-09-30T04:45:07.245Z,90.52
2018-09-30T04:46:07.240Z,89.58
2018-09-30T04:47:07.260Z,89.48
2018-09-30T04:48:07.260Z,89.23
2018-09-30T04:49:07.210Z,87.57
2018-09-30T04:50:07.305Z,87.37
2018-09-30T04:51:07.216Z,87.16
2018-09-30T04:52:07.176Z,87.99
2018-09-30T04:53:07.185Z,88.92
2018-09-30T04:54:07.153Z,86.74
2018-09-30T04:55:07.141Z,86.49
2018-09-30T04:56:07.128Z,85.79
2018-09-30T04:57:07.114Z,84.23
2018-09-30T04:58:07.121Z,82.54
2018-09-30T04:59:07.094Z,81.88
2018-09-30T05:00:07.085Z,81.12
2018-09-30T05:01:07.079Z,80.91
2018-09-30T05:02:07.061Z,80.91
2018-09-30T05:03:07.076Z,80.57
2018-09-30T05:04:07.051Z,79.98
2018-09-30T05:05:07.038Z,79.88
2018-09-30T05:06:07.024Z,80.36
2018-09-30T05:07:07.009Z,79.53
2018-09-30T05:08:07.015Z,79.12
2018-09-30T05:09:06.983Z,78.67
2018-09-30T05:10:06.975Z,78.56
2018-09-30T05:11:06.965Z,78.36
2018-09-30T05:12:06.969Z,78.77
2018-09-30T05:13:06.966Z,78.77
2018-09-30T05:14:06.938Z,78.56
2018-09-30T05:15:06.949Z,78.88
2018-09-30T05:16:06.959Z,78.98
2018-09-30T05:17:06.899Z,79.70
2018-09-30T05:18:06.910Z,80.63
2018-09-30T05:19:06.884Z,81.09
2018-09-30T05:20:06.904Z,81.74
2018-09-30T05:21:06.898Z,82.46
2018-09-30T05:22:06.845Z,82.40
2018-09-30T05:23:06.873Z,83.54
2018-09-30T05:24:06.828Z,84.20
2018-09-30T05:25:06.823Z,84.23
2018-09-30T05:26:06.970Z,84.69
2018-09-30T05:27:06.797Z,85.83
2018-09-30T05:28:06.804Z,85.97
2018-09-30T05:29:06.781Z,87.26
2018-09-30T05:30:06.758Z,87.47
2018-09-30T05:31:06.782Z,88.51
2018-09-30T05:32:06.742Z,89.27
2018-09-30T05:33:06.748Z,90.72
2018-09-30T05:34:06.722Z,91.18
2018-09-30T05:35:06.705Z,91.39
2018-09-30T05:36:06.704Z,91.39
2018-09-30T05:37:06.702Z,90.29
2018-09-30T05:38:06.716Z,90.81
2018-09-30T05:39:06.667Z,91.64
2018-09-30T05:40:06.650Z,92.41
2018-09-30T05:41:06.656Z,93.35
2018-09-30T05:42:06.654Z,92.45
2018-09-30T05:43:06.636Z,93.55
2018-09-30T05:44:06.614Z,93.60
2018-09-30T05:45:06.606Z,94.22
2018-09-30T05:46:06.596Z,95.05
2018-09-30T05:47:06.584Z,94.89
2018-09-30T05:48:06.592Z,95.05
2018-09-30T05:49:06.627Z,95.57
2018-09-30T05:50:06.579Z,95.83
2018-09-30T05:51:06.542Z,96.03
2018-09-30T05:52:06.538Z,96.34
2018-09-30T05:53:06.534Z,96.86
2018-09-30T05:54:06.503Z,96.86
2018-09-30T05:55:06.492Z,96.24
2018-09-30T05:56:06.491Z,96.66
2018-09-30T05:57:06.478Z,96.76
2018-09-30T05:58:06.555Z,97.07
2018-09-30T05:59:06.452Z,97.13
2018-09-30T06:00:06.468Z,97.24
2018-09-30T06:01:06.428Z,97.44
2018-09-30T06:02:06.455Z,96.82
2018-09-30T06:03:06.437Z,96.41
2018-09-30T06:04:06.496Z,96.72
2018-09-30T06:05:06.390Z,96.20
2018-09-30T06:06:06.403Z,96.92
2018-09-30T06:07:06.364Z,97.03
2018-09-30T06:08:06.373Z,96.82
2018-09-30T06:09:06.413Z,96.82
2018-09-30T06:10:06.336Z,96.61
2018-09-30T06:11:06.394Z,96.20
2018-09-30T06:12:06.317Z,97.03
2018-09-30T06:13:06.316Z,97.03
2018-09-30T06:14:06.526Z,96.92
2018-09-30T06:15:06.287Z,96.61
2018-09-30T06:16:06.324Z,96.20
2018-09-30T06:17:06.262Z,97.07
2018-09-30T06:18:06.324Z,97.13
2018-09-30T06:19:06.238Z,97.13
2018-09-30T06:20:06.225Z,98.01
2018-09-30T06:21:06.253Z,97.75
2018-09-30T06:22:06.207Z,97.75
2018-09-30T06:23:06.203Z,97.34
2018-09-30T06:24:06.279Z,97.38
2018-09-30T06:25:06.177Z,97.24
2018-09-30T06:26:06.157Z,97.75
2018-09-30T06:27:06.166Z,97.96
2018-09-30T06:28:06.163Z,98.94
2018-09-30T06:29:06.137Z,98.48
2018-09-30T06:30:06.120Z,99.11
2018-09-30T06:31:06.106Z,99.58
2018-09-30T06:32:06.123Z,99.63
2018-09-30T06:33:06.107Z,99.79
2018-09-30T06:34:06.089Z,99.16
2018-09-30T06:35:06.084Z,98.71
2018-09-30T06:36:06.052Z,98.71
2018-09-30T06:37:06.086Z,98.50
2018-09-30T06:38:06.192Z,98.60
2018-09-30T06:39:06.025Z,98.08
2018-09-30T06:40:06.017Z,97.67
2018-09-30T06:41:05.996Z,96.79
2018-09-30T06:42:05.985Z,96.02
2018-09-30T06:43:05.995Z,96.12
2018-09-30T06:44:05.973Z,95.61
2018-09-30T06:45:06.081Z,96.33
2018-09-30T06:46:05.951Z,96.23
2018-09-30T06:47:05.936Z,96.12
2018-09-30T06:48:05.944Z,95.81
2018-09-30T06:49:05.910Z,95.46
2018-09-30T06:50:05.921Z,95.04
2018-09-30T06:51:05.891Z,95.36
2018-09-30T06:52:05.889Z,95.25
2018-09-30T06:53:05.890Z,94.84
2018-09-30T06:54:05.857Z,94.84
2018-09-30T06:55:05.852Z,94.73
2018-09-30T06:56:05.839Z,94.48
2018-09-30T06:57:05.847Z,94.37
2018-09-30T06:58:05.819Z,94.73
2018-09-30T06:59:05.822Z,94.11
2018-09-30T07:00:05.796Z,94.37
2018-09-30T07:01:05.779Z,94.48
2018-09-30T07:02:05.799Z,93.33
2018-09-30T07:03:05.776Z,93.81
2018-09-30T07:04:05.753Z,93.91
2018-09-30T07:05:05.749Z,92.63
2018-09-30T07:06:05.770Z,92.63
2018-09-30T07:07:05.724Z,91.60
2018-09-30T07:08:05.751Z,91.55
2018-09-30T07:09:05.693Z,92.07
2018-09-30T07:10:05.705Z,91.76
2018-09-30T07:11:05.736Z,90.26
2018-09-30T07:12:05.662Z,90.89
2018-09-30T07:13:05.668Z,90.68
2018-09-30T07:14:05.640Z,90.84
2018-09-30T07:15:05.631Z,90.95
2018-09-30T07:16:05.625Z,91.16
2018-09-30T07:17:05.616Z,89.29
2018-09-30T07:18:05.620Z,90.12
2018-09-30T07:19:05.591Z,88.43
2018-09-30T07:20:05.577Z,88.64
2018-09-30T07:21:05.589Z,88.18
2018-09-30T07:22:05.587Z,86.83
2018-09-30T07:23:05.579Z,85.60
2018-09-30T07:24:05.536Z,85.35
2018-09-30T07:25:05.531Z,85.45
2018-09-30T07:26:05.527Z,84.83
2018-09-30T07:27:05.530Z,83.97
2018-09-30T07:28:05.580Z,84.44
2018-09-30T07:29:05.486Z,84.03
2018-09-30T07:30:05.477Z,84.20
2018-09-30T07:31:05.475Z,83.17
2018-09-30T07:32:05.453Z,83.99
2018-09-30T07:33:05.470Z,83.85
2018-09-30T07:34:05.427Z,83.27
2018-09-30T07:35:05.416Z,81.03
2018-09-30T07:36:05.413Z,80.62
2018-09-30T07:37:05.397Z,81.96
2018-09-30T07:38:05.410Z,79.55
2018-09-30T07:39:05.376Z,79.65
2018-09-30T07:40:05.360Z,78.79
2018-09-30T07:41:05.352Z,77.31
2018-09-30T07:42:05.381Z,78.14
2018-09-30T07:43:05.339Z,79.27
2018-09-30T07:44:05.325Z,76.45
2018-09-30T07:45:05.305Z,74.80
2018-09-30T07:46:05.296Z,76.73
2018-09-30T07:47:05.291Z,76.73
2018-09-30T07:48:05.355Z,76.93
2018-09-30T07:49:05.281Z,76.69
2018-09-30T07:50:05.265Z,74.19
2018-09-30T07:51:05.247Z,73.95
2018-09-30T07:52:05.237Z,76.42
2018-09-30T07:53:05.239Z,75.90
2018-09-30T07:54:05.209Z,73.95
2018-09-30T07:55:05.205Z,74.43
2018-09-30T07:56:05.204Z,72.92
2018-09-30T07:57:05.184Z,73.91
2018-09-30T07:58:05.219Z,75.56
2018-09-30T07:59:05.188Z,74.02
2018-09-30T08:00:05.150Z,72.06
2018-09-30T08:01:05.143Z,72.34
2018-09-30T08:02:05.147Z,70.29
2018-09-30T08:03:05.119Z,70.26
2018-09-30T08:04:05.107Z,73.54
2018-09-30T08:05:05.114Z,74.15
2018-09-30T08:06:05.081Z,73.95
2018-09-30T08:07:05.071Z,72.31
2018-09-30T08:08:05.092Z,72.61
2018-09-30T08:09:05.091Z,73.10
2018-09-30T08:10:05.071Z,71.66
2018-09-30T08:11:05.030Z,71.86
2018-09-30T08:12:05.017Z,74.53
2018-09-30T08:13:05.004Z,72.65
2018-09-30T08:14:05.025Z,72.38
2018-09-30T08:15:04.988Z,73.78
2018-09-30T08:16:04.973Z,73.16
2018-09-30T08:17:04.982Z,74.60
2018-09-30T08:18:04.958Z,71.11
2018-09-30T08:19:04.949Z,71.62
2018-09-30T08:20:04.935Z,72.55
2018-09-30T08:21:04.924Z,73.95
2018-09-30T08:22:04.931Z,76.54
2018-09-30T08:23:04.901Z,72.61
2018-09-30T08:24:04.895Z,74.15
2018-09-30T08:25:04.895Z,71.90
2018-09-30T08:26:04.869Z,70.12
2018-09-30T08:27:04.856Z,70.20
2018-09-30T08:28:04.853Z,69.68
2018-09-30T08:29:04.847Z,69.85
2018-09-30T08:30:04.892Z,68.01
2018-09-30T08:31:04.816Z,69.55
2018-09-30T08:32:04.804Z,68.90
2018-09-30T08:33:04.798Z,70.64
2018-09-30T08:34:04.785Z,66.86
2018-09-30T08:35:04.790Z,68.87
2018-09-30T08:36:04.759Z,69.59
2018-09-30T08:37:04.750Z,68.74
2018-09-30T08:38:04.737Z,70.27
2018-09-30T08:39:04.729Z,70.98
2018-09-30T08:40:04.750Z,69.65
2018-09-30T08:41:04.715Z,70.57
2018-09-30T08:42:04.701Z,68.40
2018-09-30T08:43:04.692Z,69.52
2018-09-30T08:44:04.698Z,69.42
2018-09-30T08:45:04.718Z,65.61
2018-09-30T08:46:04.701Z,67.62
2018-09-30T08:47:04.661Z,65.37
2018-09-30T08:48:04.635Z,66.57
2018-09-30T08:49:04.620Z,65.86
2018-09-30T08:50:04.638Z,64.84
2018-09-30T08:51:04.633Z,61.47
2018-09-30T08:52:04.590Z,62.56
2018-09-30T08:53:04.585Z,66.44
2018-09-30T08:54:04.579Z,63.15
2018-09-30T08:55:04.579Z,61.82
2018-09-30T08:56:04.555Z,65.28
2018-09-30T08:57:04.586Z,64.75
2018-09-30T08:58:04.528Z,63.42
2018-09-30T08:59:04.514Z,61.05
2018-09-30T09:00:04.513Z,60.03
2018-09-30T09:01:04.502Z,59.12
2018-09-30T09:02:04.500Z,58.81
2018-09-30T09:03:04.524Z,60.31
2018-09-30T09:04:04.465Z,60.31
2018-09-30T09:05:04.451Z,62.82
2018-09-30T09:06:04.443Z,62.93
2018-09-30T09:07:04.457Z,59.88
2018-09-30T09:08:04.417Z,60.38
2018-09-30T09:09:04.402Z,57.74
2018-09-30T09:10:04.393Z,58.12
2018-09-30T09:11:04.402Z,58.94
2018-09-30T09:12:04.411Z,60.83
2018-09-30T09:13:04.382Z,55.25
2018-09-30T09:14:04.367Z,52.94
2018-09-30T09:15:04.344Z,57.79
2018-09-30T09:16:04.327Z,57.92
2018-09-30T09:17:04.319Z,57.81
2018-09-30T09:18:04.328Z,53.06
2018-09-30T09:19:04.306Z,55.30
2018-09-30T09:20:04.283Z,60.49
2018-09-30T09:21:04.287Z,56.62
2018-09-30T09:22:04.259Z,56.73
2018-09-30T09:23:04.255Z,52.56
2018-09-30T09:24:04.243Z,56.12
2018-09-30T09:25:04.234Z,56.62
2018-09-30T09:26:04.246Z,53.45
2018-09-30T09:27:04.248Z,54.36
2018-09-30T09:28:04.242Z,55.68
2018-09-30T09:29:04.183Z,56.70
2018-09-30T09:30:04.184Z,53.34
2018-09-30T09:31:04.184Z,53.34
2018-09-30T09:32:04.187Z,57.21
2018-09-30T09:33:04.247Z,55.27
2018-09-30T09:34:04.192Z,54.46
2018-09-30T09:35:04.178Z,55.88
2018-09-30T09:36:04.112Z,54.46
2018-09-30T09:37:04.121Z,57.61
2018-09-30T09:38:04.097Z,54.33
2018-09-30T09:39:04.078Z,55.35
2018-09-30T09:40:04.079Z,53.72
2018-09-30T09:41:04.056Z,51.90
2018-09-30T09:42:04.074Z,55.66
2018-09-30T09:43:04.044Z,54.54
2018-09-30T09:44:04.033Z,54.64
2018-09-30T09:45:04.015Z,55.88
2018-09-30T09:46:04.021Z,53.32
2018-09-30T09:47:04.002Z,55.05
2018-09-30T09:48:03.980Z,57.59
2018-09-30T09:49:03.968Z,54.54
2018-09-30T09:50:03.977Z,55.55
2018-09-30T09:51:03.966Z,52.40
2018-09-30T09:52:03.935Z,56.87
2018-09-30T09:53:03.959Z,54.24
2018-09-30T09:54:03.966Z,52.91
2018-09-30T09:55:03.904Z,54.94
2018-09-30T09:56:03.912Z,53.42
2018-09-30T09:57:03.886Z,54.33
2018-09-30T09:58:03.875Z,56.77
2018-09-30T09:59:03.877Z,56.67
2018-09-30T10:00:03.850Z,56.54
2018-09-30T10:01:03.855Z,54.03
2018-09-30T10:02:03.825Z,54.11
2018-09-30T10:03:03.819Z,55.22
2018-09-30T10:04:03.814Z,55.73
2018-09-30T10:05:03.875Z,59.28
2018-09-30T10:06:03.809Z,56.62
2018-09-30T10:07:03.775Z,53.17
2018-09-30T10:08:03.820Z,55.10
2018-09-30T10:09:03.765Z,54.28
2018-09-30T10:10:03.746Z,53.25
2018-09-30T10:11:03.750Z,53.85
2018-09-30T10:12:03.720Z,54.26
2018-09-30T10:13:03.761Z,53.14
2018-09-30T10:14:03.741Z,48.78
2018-09-30T10:15:03.745Z,52.53
2018-09-30T10:16:03.707Z,54.28
2018-09-30T10:17:03.671Z,53.17
2018-09-30T10:18:03.659Z,51.85
2018-09-30T10:19:03.658Z,57.53
2018-09-30T10:20:03.633Z,54.28
2018-09-30T10:21:03.624Z,54.49
2018-09-30T10:22:03.634Z,55.30
2018-09-30T10:23:03.604Z,54.28
2018-09-30T10:24:03.592Z,57.73
2018-09-30T10:25:03.578Z,54.31
2018-09-30T10:26:03.571Z,53.91
2018-09-30T10:27:03.588Z,53.47
2018-09-30T10:28:03.562Z,51.95
2018-09-30T10:29:03.554Z,54.49
2018-09-30T10:30:03.556Z,53.78
2018-09-30T10:31:03.538Z,53.37
2018-09-30T10:32:03.506Z,54.05
2018-09-30T10:33:03.490Z,54.99
2018-09-30T10:34:03.481Z,56.29
2018-09-30T10:35:03.505Z,56.70
2018-09-30T10:36:03.532Z,53.45
2018-09-30T10:37:03.470Z,53.34
2018-09-30T10:38:03.439Z,54.24
2018-09-30T10:39:03.571Z,53.93
2018-09-30T10:40:03.438Z,51.82
2018-09-30T10:41:03.425Z,54.26
2018-09-30T10:42:03.400Z,54.44
2018-09-30T10:43:03.388Z,52.92
2018-09-30T10:44:03.374Z,50.59
2018-09-30T10:45:03.380Z,49.77
2018-09-30T10:46:03.370Z,53.32
2018-09-30T10:47:03.339Z,53.02
2018-09-30T10:48:03.336Z,53.42
2018-09-30T10:49:03.321Z,53.02
2018-09-30T10:50:03.329Z,53.32
2018-09-30T10:51:03.323Z,48.66
2018-09-30T10:52:03.283Z,50.76
2018-09-30T10:53:03.282Z,49.44
2018-09-30T10:54:03.295Z,55.83
2018-09-30T10:55:03.263Z,52.39
2018-09-30T10:56:03.283Z,50.46
2018-09-30T10:57:03.297Z,49.22
2018-09-30T10:58:03.222Z,49.34
2018-09-30T10:59:03.208Z,48.63
2018-09-30T11:00:03.204Z,50.23
2018-09-30T11:01:03.224Z,52.76
2018-09-30T11:02:03.181Z,53.75
2018-09-30T11:03:03.175Z,50.92
2018-09-30T11:04:03.178Z,50.21
2018-09-30T11:05:03.147Z,48.59
2018-09-30T11:06:03.198Z,48.36
2018-09-30T11:07:03.129Z,49.27
2018-09-30T11:08:03.124Z,51.50
2018-09-30T11:09:03.124Z,46.62
2018-09-30T11:10:03.156Z,48.95
2018-09-30T11:11:03.081Z,49.93
2018-09-30T11:12:03.081Z,48.60
2018-09-30T11:13:03.062Z,46.28
2018-09-30T11:14:03.095Z,47.89
2018-09-30T11:15:03.049Z,45.04
2018-09-30T11:16:03.078Z,47.06
2018-09-30T11:17:03.059Z,46.56
2018-09-30T11:18:03.092Z,46.84
2018-09-30T11:19:03.007Z,45.81
2018-09-30T11:20:02.991Z,48.50
2018-09-30T11:21:02.995Z,46.19
2018-09-30T11:22:02.968Z,44.45
2018-09-30T11:23:02.961Z,43.82
2018-09-30T11:24:02.939Z,44.51
2018-09-30T11:25:02.946Z,43.28
2018-09-30T11:26:02.964Z,43.08
2018-09-30T11:27:02.915Z,43.56
2018-09-30T11:28:02.899Z,45.63
2018-09-30T11:29:02.887Z,42.41
2018-09-30T11:30:02.880Z,40.81
2018-09-30T11:31:02.891Z,41.09
2018-09-30T11:32:02.861Z,43.10
2018-09-30T11:33:02.846Z,41.55
2018-09-30T11:34:02.835Z,41.03
2018-09-30T11:35:02.827Z,41.03
2018-09-30T11:36:02.810Z,43.72
2018-09-30T11:37:02.837Z,41.01
2018-09-30T11:38:02.843Z,42.52
2018-09-30T11:39:02.779Z,41.61
2018-09-30T11:40:02.772Z,39.93
2018-09-30T11:41:02.759Z,39.47
2018-09-30T11:42:02.765Z,40.48
2018-09-30T11:43:02.733Z,39.20
2018-09-30T11:44:02.727Z,39.82
2018-09-30T11:45:02.731Z,39.54
2018-09-30T11:46:02.705Z,41.73
2018-09-30T11:47:02.713Z,42.24
2018-09-30T11:48:02.682Z,40.89
2018-09-30T11:49:02.680Z,40.37
2018-09-30T11:50:02.665Z,42.47
2018-09-30T11:51:02.645Z,40.08
2018-09-30T11:52:02.669Z,42.78
2018-09-30T11:53:02.632Z,41.97
2018-09-30T11:54:02.628Z,40.95
2018-09-30T11:55:02.623Z,42.03
2018-09-30T11:56:02.589Z,41.63
2018-09-30T11:57:02.596Z,43.84
2018-09-30T11:58:02.583Z,40.05
2018-09-30T11:59:02.581Z,40.67
2018-09-30T12:00:02.619Z,40.97
2018-09-30T12:01:02.555Z,41.87
2018-09-30T12:02:02.547Z,43.00
2018-09-30T12:03:02.544Z,39.78
2018-09-30T12:04:02.508Z,45.61
2018-09-30T12:05:02.498Z,44.43
2018-09-30T12:06:02.506Z,43.20
2018-09-30T12:07:02.497Z,43.02
2018-09-30T12:08:02.464Z,40.62
2018-09-30T12:09:02.455Z,39.96
2018-09-30T12:10:02.443Z,42.68
2018-09-30T12:11:02.424Z,42.68
2018-09-30T12:12:02.437Z,48.09
2018-09-30T12:13:02.409Z,43.76
2018-09-30T12:14:02.393Z,43.06
2018-09-30T12:15:02.380Z,42.13
2018-09-30T12:16:02.375Z,42.54
2018-09-30T12:17:02.381Z,44.73
2018-09-30T12:18:02.374Z,46.22
2018-09-30T12:19:02.364Z,40.79
2018-09-30T12:20:02.357Z,41.11
2018-09-30T12:21:02.399Z,40.81
2018-09-30T12:22:02.323Z,42.74
2018-09-30T12:23:02.292Z,42.54
2018-09-30T12:24:02.297Z,42.44
2018-09-30T12:25:02.277Z,39.42
2018-09-30T12:26:02.269Z,41.65
2018-09-30T12:27:02.273Z,39.94
2018-09-30T12:28:02.239Z,42.98
2018-09-30T12:29:02.232Z,40.77
2018-09-30T12:30:02.220Z,41.09
2018-09-30T12:31:02.224Z,41.79
2018-09-30T12:32:02.212Z,42.11
2018-09-30T12:33:02.189Z,42.30
2018-09-30T12:34:02.175Z,42.40
2018-09-30T12:35:02.165Z,40.89
2018-09-30T12:36:02.158Z,41.79
2018-09-30T12:37:02.163Z,41.09
2018-09-30T12:38:02.133Z,41.99
2018-09-30T12:39:02.135Z,43.91
2018-09-30T12:40:02.142Z,45.70
2018-09-30T12:41:02.140Z,44.39
2018-09-30T12:42:02.109Z,42.58
2018-09-30T12:43:02.077Z,40.97
2018-09-30T12:44:02.070Z,42.70
2018-09-30T12:45:02.059Z,41.99
2018-09-30T12:46:02.070Z,41.69
2018-09-30T12:47:02.031Z,41.37
2018-09-30T12:48:02.025Z,40.86
2018-09-30T12:49:02.019Z,41.85
2018-09-30T12:50:02.007Z,43.56
2018-09-30T12:51:02.004Z,39.45
2018-09-30T12:52:02.008Z,39.64